createdAt,value
2023-03-16T00:00:48.452Z,100462.97
2023-03-16T00:03:19.348Z,100461.13
2023-03-16T00:05:47.409Z,100464.59
2023-03-16T00:08:16.717Z,100464.47
2023-03-16T00:10:47.241Z,100456.47
2023-03-16T00:13:15.542Z,100460.87
2023-03-16T00:15:50.173Z,100472.34
2023-03-16T00:18:17.308Z,100467.25
2023-03-16T00:20:44.293Z,100477.63
2023-03-16T00:23:11.963Z,100472.25
2023-03-16T00:25:38.779Z,100469.69
2023-03-16T00:28:05.648Z,100471.41
2023-03-16T00:30:32.842Z,100471.31
2023-03-16T00:32:59.825Z,100473.88
2023-03-16T00:35:26.848Z,100469.62
2023-03-16T00:37:57.401Z,100472.97
2023-03-16T00:40:24.816Z,100475.56
2023-03-16T00:42:51.745Z,100478.16
2023-03-16T00:45:18.618Z,100464.88
2023-03-16T00:47:45.545Z,100466.59
2023-03-16T00:50:12.408Z,100480.50
2023-03-16T00:52:39.297Z,100478.81
2023-03-16T00:55:06.624Z,100483.94
2023-03-16T00:57:33.503Z,100492.59
2023-03-16T01:00:02.313Z,100489.91
2023-03-16T01:02:29.850Z,100492.41
2023-03-16T01:04:56.842Z,100445.75
2023-03-16T01:07:23.662Z,100489.84
2023-03-16T01:09:50.602Z,100489.84
2023-03-16T01:12:19.683Z,100496.75
2023-03-16T01:14:47.227Z,100492.28
2023-03-16T01:17:15.968Z,100477.09
2023-03-16T01:19:44.654Z,100499.09
2023-03-16T01:22:12.277Z,100499.94
2023-03-16T01:24:40.052Z,100503.38
2023-03-16T01:27:07.896Z,100498.09
2023-03-16T01:29:35.299Z,100503.31
2023-03-16T01:32:04.050Z,100507.66
2023-03-16T01:34:32.062Z,100505.88
2023-03-16T01:36:59.049Z,100506.00
2023-03-16T01:39:25.985Z,100508.50
2023-03-16T01:41:53.524Z,100474.09
2023-03-16T01:44:24.652Z,100508.53
2023-03-16T01:46:51.538Z,100506.72
2023-03-16T01:49:29.555Z,100495.34
2023-03-16T01:52:04.794Z,100514.47
2023-03-16T01:54:34.928Z,100510.78
2023-03-16T01:57:08.765Z,100518.59
2023-03-16T01:59:41.582Z,100520.28
2023-03-16T02:02:09.755Z,100520.16
2023-03-16T02:04:45.407Z,100531.59
2023-03-16T02:07:16.986Z,100530.59
2023-03-16T02:09:46.636Z,100532.34
2023-03-16T02:12:18.951Z,100527.91
2023-03-16T02:14:47.297Z,100530.59
2023-03-16T02:17:16.888Z,100547.00
2023-03-16T02:20:08.864Z,100542.75
2023-03-16T02:22:43.907Z,100551.38
2023-03-16T02:25:13.039Z,100540.69
2023-03-16T02:28:04.699Z,100559.78
2023-03-16T02:30:32.315Z,100556.31
2023-03-16T02:32:59.806Z,100552.75
2023-03-16T02:35:26.680Z,100549.03
2023-03-16T02:37:54.130Z,100559.72
2023-03-16T02:40:31.062Z,100559.66
2023-03-16T02:43:05.364Z,100546.47
2023-03-16T02:45:46.202Z,100560.50
2023-03-16T02:48:28.466Z,100566.47
2023-03-16T02:50:55.597Z,100567.25
2023-03-16T02:53:22.910Z,100565.41
2023-03-16T02:55:49.948Z,100568.84
2023-03-16T02:58:17.496Z,100579.28
2023-03-16T03:00:47.282Z,100575.87
2023-03-16T03:03:14.386Z,100581.97
2023-03-16T03:05:41.419Z,100586.31
2023-03-16T03:08:08.379Z,100587.09
2023-03-16T03:10:35.269Z,100593.03
2023-03-16T03:13:02.151Z,100592.25
2023-03-16T03:15:29.166Z,100600.81
2023-03-16T03:17:56.040Z,100603.44
2023-03-16T03:20:25.925Z,100606.78
2023-03-16T03:22:53.262Z,100608.50
2023-03-16T03:25:21.975Z,100615.44
2023-03-16T03:27:50.324Z,100619.09
2023-03-16T03:30:20.402Z,100623.34
2023-03-16T03:32:47.476Z,100619.84
2023-03-16T03:35:15.980Z,100633.72
2023-03-16T03:37:44.390Z,100623.22
2023-03-16T03:40:14.374Z,100618.75
2023-03-16T03:42:42.120Z,100637.13
2023-03-16T03:45:12.957Z,100635.44
2023-03-16T03:47:41.460Z,100631.78
2023-03-16T03:50:10.368Z,100638.84
2023-03-16T03:52:37.432Z,100639.56
2023-03-16T03:55:04.552Z,100634.91
2023-03-16T03:57:31.675Z,100652.69
2023-03-16T03:59:58.650Z,100647.44
2023-03-16T04:02:25.668Z,100654.44
2023-03-16T04:04:52.664Z,100651.72
2023-03-16T04:07:19.429Z,100654.44
2023-03-16T04:09:46.299Z,100645.72
2023-03-16T04:12:13.638Z,100656.03
2023-03-16T04:14:40.506Z,100652.50
2023-03-16T04:17:07.540Z,100662.03
2023-03-16T04:19:34.624Z,100647.22
2023-03-16T04:22:01.552Z,100661.94
2023-03-16T04:24:28.408Z,100662.84
2023-03-16T04:26:55.388Z,100671.47
2023-03-16T04:29:22.204Z,100649.34
2023-03-16T04:31:49.032Z,100678.16
2023-03-16T04:34:15.819Z,100680.66
2023-03-16T04:36:42.686Z,100679.59
2023-03-16T04:39:10.638Z,100681.25
2023-03-16T04:41:37.782Z,100687.25
2023-03-16T04:44:04.863Z,100688.19
2023-03-16T04:46:31.932Z,100692.53
2023-03-16T04:48:59.241Z,100687.25
2023-03-16T04:51:27.172Z,100690.81
2023-03-16T04:53:54.424Z,100691.69
2023-03-16T04:56:21.729Z,100701.13
2023-03-16T04:58:50.142Z,100702.03
2023-03-16T05:01:18.428Z,100704.63
2023-03-16T05:03:45.497Z,100711.78
2023-03-16T05:06:12.920Z,100715.28
2023-03-16T05:08:40.582Z,100716.06
2023-03-16T05:11:07.586Z,100707.94
2023-03-16T05:13:34.527Z,100719.41
2023-03-16T05:16:01.980Z,100722.75
2023-03-16T05:18:29.026Z,100726.38
2023-03-16T05:20:57.061Z,100732.47
2023-03-16T05:23:24.477Z,100701.44
2023-03-16T05:25:51.383Z,100737.72
2023-03-16T05:28:19.293Z,100735.28
2023-03-16T05:30:46.302Z,100738.78
2023-03-16T05:33:14.429Z,100738.00
2023-03-16T05:35:41.553Z,100725.66
2023-03-16T05:38:10.006Z,100741.72
2023-03-16T05:40:37.429Z,100737.47
2023-03-16T05:43:04.626Z,100735.87
2023-03-16T05:45:32.467Z,100738.56
2023-03-16T05:47:59.670Z,100749.16
2023-03-16T05:50:26.897Z,100742.34
2023-03-16T05:52:54.312Z,100748.66
2023-03-16T05:55:21.097Z,100755.72
2023-03-16T05:57:48.051Z,100740.03
2023-03-16T06:00:16.568Z,100757.94
2023-03-16T06:02:48.550Z,100766.31
2023-03-16T06:05:17.085Z,100769.25
2023-03-16T06:07:44.578Z,100776.50
2023-03-16T06:10:12.822Z,100780.41
2023-03-16T06:12:40.034Z,100774.72
2023-03-16T06:15:08.450Z,100776.00
2023-03-16T06:17:36.388Z,100776.09
2023-03-16T06:20:10.434Z,100780.91
2023-03-16T06:22:38.828Z,100782.81
2023-03-16T06:25:06.415Z,100790.13
2023-03-16T06:27:33.309Z,100784.97
2023-03-16T06:30:00.195Z,100784.97
2023-03-16T06:32:27.043Z,100771.22
2023-03-16T06:34:53.985Z,100800.56
2023-03-16T06:37:21.818Z,100804.13
2023-03-16T06:39:48.678Z,100809.59
2023-03-16T06:42:15.834Z,100811.50
2023-03-16T06:44:42.785Z,100816.00
2023-03-16T06:47:10.512Z,100811.81
2023-03-16T06:49:37.549Z,100813.63
2023-03-16T06:52:04.959Z,100820.78
2023-03-16T06:54:35.378Z,100832.41
2023-03-16T06:57:02.195Z,100835.00
2023-03-16T06:59:29.453Z,100829.09
2023-03-16T07:01:57.304Z,100842.38
2023-03-16T07:04:24.352Z,100835.62
2023-03-16T07:06:51.861Z,100833.22
2023-03-16T07:09:18.910Z,100842.25
2023-03-16T07:11:46.004Z,100845.94
2023-03-16T07:14:13.206Z,100847.00
2023-03-16T07:16:40.111Z,100840.94
2023-03-16T07:19:06.947Z,100846.34
2023-03-16T07:21:39.412Z,100853.53
2023-03-16T07:24:08.070Z,100852.84
2023-03-16T07:26:35.052Z,100853.97
2023-03-16T07:29:01.983Z,100854.06
2023-03-16T07:31:28.923Z,100850.47
2023-03-16T07:33:57.514Z,100862.94
2023-03-16T07:36:24.772Z,100867.44
2023-03-16T07:38:51.684Z,100874.53
2023-03-16T07:41:19.356Z,100868.41
2023-03-16T07:43:46.204Z,100868.31
2023-03-16T07:46:13.921Z,100874.63
2023-03-16T07:48:42.705Z,100886.06
2023-03-16T07:51:11.711Z,100879.91
2023-03-16T07:53:39.833Z,100885.22
2023-03-16T07:56:07.823Z,100886.19
2023-03-16T07:58:34.782Z,100883.56
2023-03-16T08:01:01.743Z,100882.69
2023-03-16T08:03:29.982Z,100887.94
2023-03-16T08:05:57.095Z,100880.91
2023-03-16T08:08:24.022Z,100884.41
2023-03-16T08:10:53.568Z,100874.72
2023-03-16T08:13:22.500Z,100870.28
2023-03-16T08:15:56.036Z,100865.88
2023-03-16T08:18:23.950Z,100878.16
2023-03-16T08:20:50.896Z,100883.34
2023-03-16T08:23:18.554Z,100892.22
2023-03-16T08:25:46.229Z,100900.00
2023-03-16T08:28:13.155Z,100894.34
2023-03-16T08:30:51.236Z,100898.88
2023-03-16T08:33:23.023Z,100898.53
2023-03-16T08:35:50.882Z,100904.06
2023-03-16T08:38:19.261Z,100899.56
2023-03-16T08:40:48.693Z,100902.19
2023-03-16T08:43:17.276Z,100896.88
2023-03-16T08:45:48.530Z,100903.59
2023-03-16T08:48:15.725Z,100902.34
2023-03-16T08:50:44.212Z,100901.94
2023-03-16T08:53:13.711Z,100896.84
2023-03-16T08:55:41.870Z,100899.25
2023-03-16T08:58:10.766Z,100872.97
2023-03-16T09:00:38.991Z,100901.72
2023-03-16T09:03:06.874Z,100897.78
2023-03-16T09:05:34.233Z,100894.94
2023-03-16T09:08:01.655Z,100912.50
2023-03-16T09:10:29.061Z,100901.94
2023-03-16T09:12:56.791Z,100907.75
2023-03-16T09:15:23.810Z,100912.81
2023-03-16T09:17:51.176Z,100907.13
2023-03-16T09:20:34.836Z,100908.75
2023-03-16T09:23:01.895Z,100910.28
2023-03-16T09:25:29.138Z,100913.19
2023-03-16T09:27:56.362Z,100903.59
2023-03-16T09:30:23.392Z,100905.91
2023-03-16T09:32:50.892Z,100911.06
2023-03-16T09:35:18.141Z,100916.69
2023-03-16T09:38:01.058Z,100918.22
2023-03-16T09:40:33.498Z,100903.72
2023-03-16T09:43:15.527Z,100914.41
2023-03-16T09:45:51.623Z,100896.50
2023-03-16T09:48:21.548Z,100910.03
2023-03-16T09:50:49.836Z,100905.78
2023-03-16T09:53:29.449Z,100913.19
2023-03-16T09:56:04.451Z,100914.75
2023-03-16T09:58:34.660Z,100917.38
2023-03-16T10:01:12.225Z,100920.81
2023-03-16T10:04:11.651Z,100922.97
2023-03-16T10:06:49.590Z,100915.16
2023-03-16T10:09:47.739Z,100927.72
2023-03-16T10:12:16.045Z,100928.37
2023-03-16T10:14:54.638Z,100925.97
2023-03-16T10:17:30.959Z,100920.16
2023-03-16T10:20:02.796Z,100920.16
2023-03-16T10:22:34.953Z,100924.53
2023-03-16T10:25:17.119Z,100940.06
2023-03-16T10:27:46.072Z,100931.97
2023-03-16T10:30:25.966Z,100926.13
2023-03-16T10:32:53.388Z,100930.50
2023-03-16T10:35:48.910Z,100916.97
2023-03-16T10:38:41.068Z,100918.03
2023-03-16T10:41:25.887Z,100921.37
2023-03-16T10:43:58.698Z,100921.97
2023-03-16T10:46:28.891Z,100916.94
2023-03-16T10:49:00.918Z,100916.69
2023-03-16T10:51:31.063Z,100912.59
2023-03-16T10:54:28.420Z,100911.16
2023-03-16T10:56:56.757Z,100918.81
2023-03-16T10:59:35.243Z,100910.34
2023-03-16T11:02:14.344Z,100916.06
2023-03-16T11:04:41.976Z,100904.06
2023-03-16T11:07:15.747Z,100833.59
2023-03-16T11:09:44.890Z,100910.75
2023-03-16T11:12:14.254Z,100901.66
2023-03-16T11:14:49.135Z,100881.19
2023-03-16T11:17:44.666Z,100897.78
2023-03-16T11:20:33.624Z,100907.66
2023-03-16T11:23:01.612Z,100876.38
2023-03-16T11:25:41.472Z,100890.09
2023-03-16T11:28:38.739Z,100895.88
2023-03-16T11:31:35.324Z,100888.44
2023-03-16T11:34:02.918Z,100894.53
2023-03-16T11:36:45.745Z,100885.38
2023-03-16T11:39:15.651Z,100891.22
2023-03-16T11:41:59.002Z,100899.84
2023-03-16T11:44:31.733Z,100887.81
2023-03-16T11:47:20.774Z,100887.69
2023-03-16T11:49:53.356Z,100875.28
2023-03-16T11:52:38.671Z,100874.00
2023-03-16T11:55:24.904Z,100877.50
2023-03-16T11:58:08.123Z,100880.87
2023-03-16T12:01:08.807Z,100885.13
2023-03-16T12:03:36.676Z,100817.91
2023-03-16T12:06:13.579Z,100882.56
2023-03-16T12:09:16.276Z,100876.75
2023-03-16T12:11:54.415Z,100874.37
2023-03-16T12:14:30.341Z,100887.59
2023-03-16T12:17:03.436Z,100869.41
2023-03-16T12:19:52.200Z,100872.59
2023-03-16T12:22:44.554Z,100876.91
2023-03-16T12:25:22.289Z,100871.53
2023-03-16T12:27:55.992Z,100869.31
2023-03-16T12:30:48.007Z,100855.31
2023-03-16T12:33:17.873Z,100880.81
2023-03-16T12:36:07.023Z,100874.59
2023-03-16T12:38:53.593Z,100873.66
2023-03-16T12:41:44.852Z,100866.78
2023-03-16T12:44:21.935Z,100857.28
2023-03-16T12:46:57.782Z,100871.31
2023-03-16T12:49:26.513Z,100854.50
2023-03-16T12:52:05.947Z,100860.37
2023-03-16T12:54:33.565Z,100791.53
2023-03-16T12:57:10.971Z,100865.28
2023-03-16T13:00:01.037Z,100850.03
2023-03-16T13:02:34.783Z,100869.88
2023-03-16T13:05:09.930Z,100851.28
2023-03-16T13:07:39.300Z,100868.88
2023-03-16T13:10:13.901Z,100859.53
2023-03-16T13:12:43.746Z,100868.16
2023-03-16T13:15:25.890Z,100868.97
2023-03-16T13:18:14.944Z,100871.75
2023-03-16T13:20:48.075Z,100878.91
2023-03-16T13:23:18.446Z,100869.75
2023-03-16T13:26:18.164Z,100876.44
2023-03-16T13:28:51.656Z,100850.84
2023-03-16T13:31:37.394Z,100836.75
2023-03-16T13:34:08.469Z,100845.12
2023-03-16T13:36:37.158Z,100848.62
2023-03-16T13:39:14.020Z,100840.28
2023-03-16T13:41:43.397Z,100858.75
2023-03-16T13:44:18.915Z,100802.47
2023-03-16T13:46:49.759Z,100834.81
2023-03-16T13:49:18.225Z,100852.94
2023-03-16T13:51:47.392Z,100856.09
2023-03-16T13:54:32.525Z,100849.78
2023-03-16T13:57:07.269Z,100851.00
2023-03-16T13:59:34.333Z,100858.47
2023-03-16T14:02:02.205Z,100848.91
2023-03-16T14:04:31.932Z,100850.37
2023-03-16T14:07:03.819Z,100860.44
2023-03-16T14:09:35.395Z,100848.47
2023-03-16T14:12:03.832Z,100869.94
2023-03-16T14:14:37.775Z,100860.66
2023-03-16T14:17:15.095Z,100867.06
2023-03-16T14:19:50.579Z,100860.09
2023-03-16T14:22:23.504Z,100863.34
2023-03-16T14:24:59.095Z,100862.59
2023-03-16T14:27:41.077Z,100861.25
2023-03-16T14:30:14.945Z,100865.59
2023-03-16T14:32:42.234Z,100861.34
2023-03-16T14:35:20.620Z,100860.59
2023-03-16T14:37:49.494Z,100866.00
2023-03-16T14:40:28.596Z,100864.03
2023-03-16T14:42:58.747Z,100882.38
2023-03-16T14:45:36.628Z,100881.09
2023-03-16T14:48:08.684Z,100870.28
2023-03-16T14:50:35.781Z,100869.62
2023-03-16T14:53:04.371Z,100876.09
2023-03-16T14:55:32.325Z,100875.78
2023-03-16T14:57:59.253Z,100882.38
2023-03-16T15:00:26.631Z,100881.91
2023-03-16T15:03:03.263Z,100888.88
2023-03-16T15:05:37.542Z,100887.00
2023-03-16T15:08:10.870Z,100886.47
2023-03-16T15:10:38.275Z,100881.53
2023-03-16T15:13:17.031Z,100881.50
2023-03-16T15:15:44.153Z,100894.63
2023-03-16T15:18:11.104Z,100893.22
2023-03-16T15:20:44.563Z,100894.87
2023-03-16T15:23:15.807Z,100892.03
2023-03-16T15:25:48.186Z,100889.53
2023-03-16T15:28:17.560Z,100901.59
2023-03-16T15:30:46.861Z,100899.69
2023-03-16T15:33:13.970Z,100903.97
2023-03-16T15:35:41.657Z,100911.34
2023-03-16T15:38:28.066Z,100901.78
2023-03-16T15:40:55.457Z,100906.22
2023-03-16T15:43:24.836Z,100896.06
2023-03-16T15:45:54.991Z,100915.34
2023-03-16T15:48:24.691Z,100913.16
2023-03-16T15:51:23.125Z,100904.09
2023-03-16T15:53:53.440Z,100918.78
2023-03-16T15:56:29.968Z,100919.91
2023-03-16T15:59:01.304Z,100928.47
2023-03-16T16:01:34.960Z,100936.09
2023-03-16T16:04:02.047Z,100936.91
2023-03-16T16:06:30.494Z,100932.16
2023-03-16T16:08:57.758Z,100898.81
2023-03-16T16:11:27.169Z,100946.34
2023-03-16T16:13:58.209Z,100938.81
2023-03-16T16:16:31.073Z,100949.88
2023-03-16T16:18:58.444Z,100946.50
2023-03-16T16:21:31.673Z,100953.56
2023-03-16T16:23:58.725Z,100952.72
2023-03-16T16:26:47.053Z,100961.59
2023-03-16T16:29:24.216Z,100959.81
2023-03-16T16:31:54.408Z,100965.34
2023-03-16T16:34:24.678Z,100974.03
2023-03-16T16:36:52.228Z,100964.66
2023-03-16T16:39:19.380Z,100975.22
2023-03-16T16:41:48.229Z,100987.81
2023-03-16T16:44:24.381Z,100985.94
2023-03-16T16:46:55.326Z,100979.87
2023-03-16T16:49:31.225Z,100985.34
2023-03-16T16:51:59.768Z,100984.44
2023-03-16T16:54:31.742Z,100978.34
2023-03-16T16:57:00.182Z,100986.34
2023-03-16T16:59:32.220Z,101000.56
2023-03-16T17:02:01.879Z,101004.06
2023-03-16T17:04:29.957Z,101006.75
2023-03-16T17:07:00.877Z,101019.16
2023-03-16T17:09:29.259Z,101019.22
2023-03-16T17:11:59.574Z,101022.75
2023-03-16T17:14:31.461Z,101023.63
2023-03-16T17:17:09.889Z,101029.81
2023-03-16T17:19:37.342Z,101030.69
2023-03-16T17:22:21.303Z,101036.87
2023-03-16T17:24:51.176Z,101012.19
2023-03-16T17:27:24.899Z,101036.87
2023-03-16T17:29:53.624Z,101037.75
2023-03-16T17:32:23.286Z,101020.94
2023-03-16T17:34:52.663Z,101031.50
2023-03-16T17:37:22.238Z,101034.97
2023-03-16T17:39:51.624Z,101047.31
2023-03-16T17:42:22.818Z,101040.25
2023-03-16T17:44:53.023Z,101049.03
2023-03-16T17:47:25.624Z,101048.19
2023-03-16T17:49:53.440Z,101054.31
2023-03-16T17:52:27.146Z,101055.16
2023-03-16T17:54:55.616Z,101046.31
2023-03-16T17:57:29.321Z,101060.37
2023-03-16T17:59:57.818Z,101057.66
2023-03-16T18:03:03.423Z,101062.88
2023-03-16T18:05:37.237Z,101069.88
2023-03-16T18:08:16.385Z,101070.66
2023-03-16T18:10:46.577Z,101068.81
2023-03-16T18:13:37.482Z,101074.88
2023-03-16T18:16:06.986Z,101078.28
2023-03-16T18:18:38.931Z,101060.53
2023-03-16T18:21:07.005Z,101082.50
2023-03-16T18:23:37.209Z,101083.28
2023-03-16T18:26:08.456Z,101075.25
2023-03-16T18:28:36.593Z,101084.87
2023-03-16T18:31:06.243Z,101090.87
2023-03-16T18:33:40.417Z,101071.31
2023-03-16T18:36:16.760Z,101096.69
2023-03-16T18:38:52.232Z,101088.59
2023-03-16T18:41:24.817Z,101108.88
2023-03-16T18:43:58.020Z,101109.75
2023-03-16T18:46:37.087Z,101111.25
2023-03-16T18:49:14.167Z,101120.84
2023-03-16T18:51:44.236Z,101128.75
2023-03-16T18:54:32.972Z,101119.78
2023-03-16T18:57:01.064Z,101122.59
2023-03-16T18:59:28.949Z,101128.63
2023-03-16T19:01:59.178Z,101095.94
2023-03-16T19:04:31.405Z,101135.81
2023-03-16T19:06:59.897Z,101142.81
2023-03-16T19:09:32.637Z,101140.94
2023-03-16T19:12:00.164Z,101151.19
2023-03-16T19:14:33.860Z,101156.13
2023-03-16T19:17:02.380Z,101176.91
2023-03-16T19:19:31.803Z,101177.28
2023-03-16T19:22:13.444Z,101184.53
2023-03-16T19:24:52.639Z,101186.91
2023-03-16T19:27:36.149Z,101186.37
2023-03-16T19:30:05.700Z,101189.09
2023-03-16T19:32:33.878Z,101189.87
2023-03-16T19:35:02.158Z,101200.31
2023-03-16T19:37:31.169Z,101194.25
2023-03-16T19:40:01.065Z,101214.38
2023-03-16T19:42:36.959Z,101226.13
2023-03-16T19:45:07.613Z,101221.75
2023-03-16T19:47:38.671Z,101225.22
2023-03-16T19:50:14.990Z,101233.28
2023-03-16T19:52:43.381Z,101227.63
2023-03-16T19:55:23.251Z,101233.97
2023-03-16T19:58:08.287Z,101242.63
2023-03-16T20:00:36.533Z,101234.19
2023-03-16T20:03:04.591Z,101232.72
2023-03-16T20:05:34.382Z,101238.81
2023-03-16T20:08:04.634Z,101251.94
2023-03-16T20:10:33.357Z,101240.97
2023-03-16T20:13:01.910Z,101254.47
2023-03-16T20:15:34.502Z,101258.97
2023-03-16T20:18:04.092Z,101248.56
2023-03-16T20:20:38.185Z,101260.91
2023-03-16T20:23:23.137Z,101257.84
2023-03-16T20:25:52.413Z,101259.84
2023-03-16T20:28:33.713Z,101269.47
2023-03-16T20:31:03.195Z,101263.53
2023-03-16T20:33:32.632Z,101265.16
2023-03-16T20:36:01.545Z,101268.69
2023-03-16T20:38:29.143Z,101279.81
2023-03-16T20:40:58.564Z,101275.81
2023-03-16T20:43:30.979Z,101274.53
2023-03-16T20:46:02.651Z,101272.53
2023-03-16T20:48:31.748Z,101279.03
2023-03-16T20:51:00.734Z,101223.91
2023-03-16T20:53:29.806Z,101279.19
2023-03-16T20:55:57.565Z,101287.50
2023-03-16T20:58:28.638Z,101279.69
2023-03-16T21:00:58.343Z,101276.53
2023-03-16T21:03:29.086Z,101282.50
2023-03-16T21:05:59.799Z,101292.88
2023-03-16T21:08:28.155Z,101287.72
2023-03-16T21:10:57.363Z,101288.22
2023-03-16T21:13:34.608Z,101291.16
2023-03-16T21:16:03.697Z,101292.16
2023-03-16T21:18:31.467Z,101295.41
2023-03-16T21:20:58.926Z,101302.38
2023-03-16T21:23:29.039Z,101306.00
2023-03-16T21:25:59.669Z,101301.31
2023-03-16T21:28:29.787Z,101300.31
2023-03-16T21:30:58.074Z,101308.06
2023-03-16T21:33:37.524Z,101315.69
2023-03-16T21:36:08.301Z,101310.91
2023-03-16T21:38:35.628Z,101309.81
2023-03-16T21:41:02.801Z,101314.09
2023-03-16T21:43:31.274Z,101321.25
2023-03-16T21:45:59.630Z,101266.00
2023-03-16T21:48:37.078Z,101311.94
2023-03-16T21:51:16.771Z,101312.94
2023-03-16T21:53:44.021Z,101317.50
2023-03-16T21:56:15.604Z,101313.62
2023-03-16T21:58:44.179Z,101307.25
2023-03-16T22:01:24.861Z,101314.91
2023-03-16T22:03:54.860Z,101313.88
2023-03-16T22:06:23.244Z,101317.53
2023-03-16T22:08:51.412Z,101315.34
2023-03-16T22:11:29.622Z,101319.94
2023-03-16T22:13:58.970Z,101322.31
2023-03-16T22:16:30.051Z,101321.56
2023-03-16T22:18:58.178Z,101318.88
2023-03-16T22:21:28.868Z,101297.44
2023-03-16T22:23:57.755Z,101333.59
2023-03-16T22:26:25.453Z,101315.88
2023-03-16T22:28:53.141Z,101324.63
2023-03-16T22:31:29.707Z,101309.16
2023-03-16T22:33:57.629Z,101330.69
2023-03-16T22:36:24.902Z,101332.47
2023-03-16T22:39:12.817Z,101331.66
2023-03-16T22:41:39.653Z,101329.75
2023-03-16T22:44:22.616Z,101325.31
2023-03-16T22:46:50.858Z,101335.63
2023-03-16T22:49:27.172Z,101316.34
2023-03-16T22:51:57.437Z,101330.66
2023-03-16T22:54:29.156Z,101331.47
2023-03-16T22:56:56.937Z,101340.59
2023-03-16T22:59:26.491Z,101324.94
2023-03-16T23:01:53.403Z,101313.12
2023-03-16T23:04:23.354Z,101321.72
2023-03-16T23:06:53.424Z,101332.72
2023-03-16T23:09:21.933Z,101331.69
2023-03-16T23:11:54.258Z,101340.25
2023-03-16T23:14:24.308Z,101339.13
2023-03-16T23:16:52.814Z,101350.97
2023-03-16T23:19:26.137Z,101348.69
2023-03-16T23:21:56.192Z,101351.69
2023-03-16T23:24:23.751Z,101258.22
2023-03-16T23:26:52.145Z,101354.88
2023-03-16T23:29:20.859Z,101352.31
2023-03-16T23:31:49.572Z,101361.94
2023-03-16T23:34:19.814Z,101355.63
2023-03-16T23:36:46.732Z,101306.56
2023-03-16T23:39:13.842Z,101306.81
2023-03-16T23:41:44.173Z,101365.16
2023-03-16T23:44:21.428Z,101364.78
2023-03-16T23:46:48.303Z,101358.66
2023-03-16T23:49:21.604Z,101370.19
2023-03-16T23:51:48.629Z,101370.81
2023-03-16T23:54:19.140Z,101373.66
2023-03-16T23:56:46.376Z,101377.28
2023-03-16T23:59:13.890Z,101369.72
